createdAt,value
2022-10-18T00:00:31.240Z,11.30
2022-10-18T00:03:23.234Z,12.20
2022-10-18T00:05:55.392Z,11.70
2022-10-18T00:08:27.456Z,12.10
2022-10-18T00:10:59.669Z,11.10
2022-10-18T00:13:31.410Z,13.00
2022-10-18T00:16:05.441Z,10.80
2022-10-18T00:18:37.156Z,11.40
2022-10-18T00:21:12.841Z,11.40
2022-10-18T00:23:47.309Z,12.80
2022-10-18T00:26:22.227Z,12.70
2022-10-18T00:28:56.359Z,12.70
2022-10-18T00:31:30.382Z,10.40
2022-10-18T00:34:03.871Z,12.60
2022-10-18T00:36:36.171Z,10.90
2022-10-18T00:39:10.470Z,10.90
2022-10-18T00:41:42.146Z,10.70
2022-10-18T00:44:44.138Z,11.90
2022-10-18T00:47:18.127Z,12.00
2022-10-18T00:49:53.834Z,11.30
2022-10-18T00:52:33.502Z,13.00
2022-10-18T00:55:07.449Z,12.40
2022-10-18T00:57:39.570Z,12.10
2022-10-18T01:00:13.623Z,11.90
2022-10-18T01:02:47.805Z,13.90
2022-10-18T01:05:20.981Z,11.10
2022-10-18T01:08:16.215Z,11.80
2022-10-18T01:11:00.535Z,11.20
2022-10-18T01:13:43.039Z,13.60
2022-10-18T01:16:24.731Z,12.30
2022-10-18T01:19:01.860Z,14.50
2022-10-18T01:21:42.504Z,13.60
2022-10-18T01:24:50.805Z,12.90
2022-10-18T01:27:37.014Z,10.50
2022-10-18T01:30:42.345Z,10.10
2022-10-18T01:33:21.440Z,14.00
2022-10-18T01:35:58.543Z,10.40
2022-10-18T01:38:33.786Z,11.30
2022-10-18T01:41:11.848Z,11.40
2022-10-18T01:43:50.550Z,11.30
2022-10-18T01:46:25.787Z,9.10
2022-10-18T01:48:58.291Z,12.80
2022-10-18T01:51:32.896Z,9.80
2022-10-18T01:54:05.907Z,7.50
2022-10-18T01:56:49.512Z,10.20
2022-10-18T01:59:40.915Z,9.20
2022-10-18T02:02:26.050Z,8.40
2022-10-18T02:05:08.052Z,10.50
2022-10-18T02:07:55.300Z,10.70
2022-10-18T02:10:43.573Z,10.80
2022-10-18T02:13:20.111Z,10.20
2022-10-18T02:15:56.389Z,10.00
2022-10-18T02:18:36.307Z,10.90
2022-10-18T02:21:12.276Z,11.20
2022-10-18T02:23:46.646Z,10.40
2022-10-18T02:26:18.663Z,11.30
2022-10-18T02:28:51.045Z,8.80
2022-10-18T02:31:27.384Z,11.50
2022-10-18T02:34:02.288Z,12.60
2022-10-18T02:36:38.235Z,10.70
2022-10-18T02:39:16.149Z,11.90
2022-10-18T02:41:48.459Z,9.60
2022-10-18T02:44:20.077Z,15.90
2022-10-18T02:46:52.314Z,10.70
2022-10-18T02:49:24.312Z,10.20
2022-10-18T02:51:55.970Z,9.80
2022-10-18T02:54:28.088Z,12.80
2022-10-18T02:56:59.741Z,11.20
2022-10-18T02:59:31.388Z,11.70
2022-10-18T03:02:03.050Z,9.90
2022-10-18T03:04:34.474Z,10.60
2022-10-18T03:07:06.141Z,10.20
2022-10-18T03:09:37.945Z,10.10
2022-10-18T03:12:09.949Z,10.70
2022-10-18T03:14:41.556Z,10.70
2022-10-18T03:17:13.328Z,13.10
2022-10-18T03:19:44.989Z,10.50
2022-10-18T03:22:16.676Z,11.00
2022-10-18T03:24:48.830Z,8.90
2022-10-18T03:27:20.509Z,12.60
2022-10-18T03:29:52.151Z,10.40
2022-10-18T03:32:23.865Z,8.80
2022-10-18T03:34:55.642Z,12.10
2022-10-18T03:37:27.389Z,11.80
2022-10-18T03:39:59.233Z,11.90
2022-10-18T03:42:31.423Z,11.80
2022-10-18T03:45:03.316Z,10.80
2022-10-18T03:47:34.980Z,10.20
2022-10-18T03:50:07.607Z,13.60
2022-10-18T03:52:39.374Z,9.20
2022-10-18T03:55:11.689Z,11.70
2022-10-18T03:57:43.472Z,12.60
2022-10-18T04:00:16.202Z,11.10
2022-10-18T04:02:51.896Z,12.90
2022-10-18T04:05:28.094Z,10.90
2022-10-18T04:08:00.001Z,11.00
2022-10-18T04:10:31.795Z,10.40
2022-10-18T04:13:03.716Z,10.40
2022-10-18T04:15:35.489Z,10.40
2022-10-18T04:18:07.461Z,12.00
2022-10-18T04:20:39.137Z,10.30
2022-10-18T04:23:11.316Z,10.90
2022-10-18T04:28:15.541Z,10.40
2022-10-18T04:30:52.540Z,11.10
2022-10-18T04:33:24.333Z,10.80
2022-10-18T04:35:56.144Z,11.80
2022-10-18T04:38:27.937Z,13.80
2022-10-18T04:40:59.711Z,10.80
2022-10-18T04:43:31.586Z,11.10
2022-10-18T04:46:03.487Z,12.00
2022-10-18T04:48:35.159Z,12.30
2022-10-18T04:51:07.397Z,10.40
2022-10-18T04:53:39.270Z,11.60
2022-10-18T04:56:11.364Z,11.80
2022-10-18T04:58:43.187Z,10.90
2022-10-18T05:01:14.991Z,11.90
2022-10-18T05:03:46.969Z,13.00
2022-10-18T05:06:18.647Z,9.90
2022-10-18T05:08:50.598Z,11.50
2022-10-18T05:11:22.417Z,8.40
2022-10-18T05:13:54.610Z,11.40
2022-10-18T05:16:28.439Z,9.90
2022-10-18T05:19:00.209Z,10.80
2022-10-18T05:21:31.842Z,12.20
2022-10-18T05:24:03.596Z,10.40
2022-10-18T05:26:35.452Z,10.80
2022-10-18T05:29:07.411Z,12.50
2022-10-18T05:31:39.376Z,9.70
2022-10-18T05:34:11.130Z,11.30
2022-10-18T05:36:42.940Z,14.60
2022-10-18T05:39:14.742Z,11.10
2022-10-18T05:41:49.302Z,12.50
2022-10-18T05:44:21.089Z,12.70
2022-10-18T05:46:53.092Z,11.10
2022-10-18T05:49:25.124Z,9.40
2022-10-18T05:51:57.110Z,12.60
2022-10-18T05:54:29.426Z,10.40
2022-10-18T05:57:01.393Z,11.60
2022-10-18T05:59:33.130Z,11.40
2022-10-18T06:02:05.145Z,12.00
2022-10-18T06:04:37.160Z,12.00
2022-10-18T06:07:12.173Z,10.80
2022-10-18T06:09:44.235Z,11.60
2022-10-18T06:12:16.028Z,10.70
2022-10-18T06:14:49.441Z,14.20
2022-10-18T06:17:21.285Z,16.40
2022-10-18T06:19:53.063Z,10.80
2022-10-18T06:22:25.654Z,12.00
2022-10-18T06:24:57.613Z,12.90
2022-10-18T06:27:31.928Z,10.70
2022-10-18T06:30:04.089Z,13.10
2022-10-18T06:32:35.795Z,14.70
2022-10-18T06:35:08.897Z,12.20
2022-10-18T06:40:13.973Z,10.00
2022-10-18T06:42:55.197Z,15.20
2022-10-18T06:45:34.093Z,10.40
2022-10-18T06:48:06.455Z,12.40
2022-10-18T06:50:38.198Z,11.70
2022-10-18T06:53:09.854Z,13.30
2022-10-18T06:55:41.863Z,32.30
2022-10-18T06:58:13.566Z,11.50
2022-10-18T07:00:47.043Z,10.90
2022-10-18T07:03:18.805Z,11.30
2022-10-18T07:05:51.071Z,12.10
2022-10-18T07:08:22.751Z,12.50
2022-10-18T07:10:55.579Z,14.20
2022-10-18T07:13:32.401Z,11.20
2022-10-18T07:16:07.002Z,11.20
2022-10-18T07:18:40.709Z,14.80
2022-10-18T07:21:14.851Z,14.70
2022-10-18T07:23:48.227Z,20.60
2022-10-18T07:26:22.375Z,15.30
2022-10-18T07:28:56.639Z,13.40
2022-10-18T07:31:28.962Z,13.70
2022-10-18T07:34:01.210Z,13.30
2022-10-18T07:36:33.897Z,17.90
2022-10-18T07:39:06.153Z,12.50
2022-10-18T07:41:38.447Z,13.20
2022-10-18T07:44:11.014Z,12.70
2022-10-18T07:46:42.831Z,13.00
2022-10-18T07:49:15.504Z,11.50
2022-10-18T07:51:47.336Z,16.50
2022-10-18T07:54:19.351Z,13.10
2022-10-18T07:56:51.033Z,14.10
2022-10-18T07:59:23.323Z,13.20
2022-10-18T08:01:56.049Z,13.00
2022-10-18T08:04:27.923Z,11.70
2022-10-18T08:06:59.728Z,15.60
2022-10-18T08:09:31.458Z,12.50
2022-10-18T08:12:03.136Z,14.10
2022-10-18T08:14:37.054Z,11.70
2022-10-18T08:17:08.742Z,10.60
2022-10-18T08:19:48.372Z,12.10
2022-10-18T08:22:30.289Z,11.50
2022-10-18T08:25:02.044Z,10.00
2022-10-18T08:27:34.123Z,11.80
2022-10-18T08:30:06.687Z,10.70
2022-10-18T08:32:38.533Z,13.50
2022-10-18T08:35:11.309Z,14.40
2022-10-18T08:37:43.724Z,12.20
2022-10-18T08:40:17.354Z,12.50
2022-10-18T08:43:02.876Z,10.30
2022-10-18T08:45:43.431Z,14.50
2022-10-18T08:48:23.620Z,11.00
2022-10-18T08:50:57.497Z,9.60
2022-10-18T08:53:39.942Z,11.30
2022-10-18T08:56:15.647Z,9.60
2022-10-18T08:58:47.388Z,10.50
2022-10-18T09:01:33.408Z,15.80
2022-10-18T09:04:20.268Z,10.80
2022-10-18T09:07:03.182Z,12.30
2022-10-18T09:09:46.018Z,9.70
2022-10-18T09:12:42.810Z,12.50
2022-10-18T09:15:21.354Z,10.30
2022-10-18T09:18:10.443Z,11.80
2022-10-18T09:20:52.038Z,10.50
2022-10-18T09:23:32.207Z,11.40
2022-10-18T09:26:11.318Z,10.80
2022-10-18T09:28:51.292Z,13.00
2022-10-18T09:31:29.965Z,12.00
2022-10-18T09:34:06.548Z,10.90
2022-10-18T09:36:39.928Z,9.10
2022-10-18T09:39:16.433Z,11.80
2022-10-18T09:41:52.462Z,12.00
2022-10-18T09:44:28.634Z,10.70
2022-10-18T09:47:04.036Z,10.70
2022-10-18T09:49:41.065Z,9.80
2022-10-18T09:52:21.405Z,9.40
2022-10-18T09:54:57.298Z,10.90
2022-10-18T09:57:36.858Z,10.60
2022-10-18T10:00:16.317Z,11.20
2022-10-18T10:02:48.174Z,10.60
2022-10-18T10:05:20.170Z,13.90
2022-10-18T10:07:58.718Z,12.00
2022-10-18T10:10:32.406Z,9.30
2022-10-18T10:13:08.558Z,12.30
2022-10-18T10:15:42.549Z,11.10
2022-10-18T10:18:23.615Z,11.50
2022-10-18T10:20:58.030Z,9.90
2022-10-18T10:23:31.651Z,11.50
2022-10-18T10:26:06.107Z,10.40
2022-10-18T10:28:46.653Z,11.10
2022-10-18T10:31:29.607Z,9.50
2022-10-18T10:34:06.141Z,10.30
2022-10-18T10:36:49.709Z,13.40
2022-10-18T10:39:23.656Z,8.70
2022-10-18T10:41:57.750Z,11.90
2022-10-18T10:44:33.168Z,11.50
2022-10-18T10:47:05.718Z,13.00
2022-10-18T10:49:47.769Z,11.30
2022-10-18T10:52:27.413Z,10.00
2022-10-18T10:55:33.994Z,8.80
2022-10-18T10:58:07.067Z,9.90
2022-10-18T11:00:42.545Z,12.90
2022-10-18T11:03:28.422Z,12.50
2022-10-18T11:06:02.110Z,9.10
2022-10-18T11:08:39.512Z,11.10
2022-10-18T11:11:22.927Z,9.20
2022-10-18T11:14:20.899Z,11.60
2022-10-18T11:17:07.765Z,11.30
2022-10-18T11:19:49.192Z,10.60
2022-10-18T11:22:24.943Z,12.20
2022-10-18T11:24:57.252Z,8.10
2022-10-18T11:27:33.556Z,10.60
2022-10-18T11:30:22.671Z,10.30
2022-10-18T11:33:07.314Z,9.90
2022-10-18T11:35:48.006Z,10.30
2022-10-18T11:38:31.042Z,8.40
2022-10-18T11:41:26.737Z,10.10
2022-10-18T11:44:03.008Z,14.40
2022-10-18T11:46:51.888Z,9.00
2022-10-18T11:49:42.338Z,10.50
2022-10-18T11:52:21.334Z,9.10
2022-10-18T11:55:06.611Z,9.20
2022-10-18T11:57:45.807Z,12.30
2022-10-18T12:00:39.614Z,9.00
2022-10-18T12:03:25.991Z,10.80
2022-10-18T12:06:02.329Z,9.80
2022-10-18T12:08:39.828Z,10.50
2022-10-18T12:11:17.227Z,10.30
2022-10-18T12:13:53.726Z,10.10
2022-10-18T12:16:49.581Z,8.90
2022-10-18T12:19:26.679Z,9.60
2022-10-18T12:22:10.077Z,9.40
2022-10-18T12:24:42.978Z,8.40
2022-10-18T12:27:17.160Z,9.70
2022-10-18T12:29:55.520Z,8.90
2022-10-18T12:32:33.485Z,8.30
2022-10-18T12:35:12.220Z,9.60
2022-10-18T12:38:05.974Z,9.30
2022-10-18T12:40:43.144Z,7.70
2022-10-18T12:43:23.836Z,8.30
2022-10-18T12:45:59.363Z,8.80
2022-10-18T12:48:38.739Z,7.50
2022-10-18T12:51:18.025Z,8.80
2022-10-18T12:53:56.117Z,9.70
2022-10-18T12:56:42.951Z,10.10
2022-10-18T12:59:51.982Z,8.90
2022-10-18T13:02:37.702Z,8.90
2022-10-18T13:05:48.743Z,9.20
2022-10-18T13:08:41.849Z,8.20
2022-10-18T13:11:36.037Z,10.60
2022-10-18T13:14:48.178Z,11.10
2022-10-18T13:17:40.195Z,9.10
2022-10-18T13:20:27.326Z,8.30
2022-10-18T13:23:11.007Z,8.50
2022-10-18T13:25:55.701Z,8.90
2022-10-18T13:28:37.135Z,13.50
2022-10-18T13:31:20.290Z,8.00
2022-10-18T13:33:52.320Z,8.70
2022-10-18T13:36:30.036Z,7.60
2022-10-18T13:39:07.218Z,8.10
2022-10-18T13:42:09.678Z,9.40
2022-10-18T13:44:42.223Z,9.90
2022-10-18T13:47:15.869Z,9.30
2022-10-18T13:50:06.339Z,10.40
2022-10-18T13:53:09.289Z,7.90
2022-10-18T13:55:58.717Z,9.40
2022-10-18T13:58:53.770Z,10.60
2022-10-18T14:01:50.688Z,11.40
2022-10-18T14:04:47.814Z,10.50
2022-10-18T14:07:20.616Z,7.90
2022-10-18T14:09:58.536Z,10.10
2022-10-18T14:12:39.326Z,10.90
2022-10-18T14:15:18.479Z,10.90
2022-10-18T14:17:52.803Z,9.60
2022-10-18T14:20:30.094Z,12.80
2022-10-18T14:23:07.668Z,10.60
2022-10-18T14:25:40.483Z,10.10
2022-10-18T14:28:16.484Z,10.10
2022-10-18T14:30:55.863Z,11.70
2022-10-18T14:33:32.592Z,10.00
2022-10-18T14:36:09.085Z,13.20
2022-10-18T14:38:51.769Z,11.70
2022-10-18T14:41:26.582Z,10.60
2022-10-18T14:44:19.424Z,14.60
2022-10-18T14:46:54.658Z,17.10
2022-10-18T14:49:26.463Z,19.80
2022-10-18T14:52:00.397Z,18.60
2022-10-18T14:54:34.139Z,20.80
2022-10-18T14:57:06.856Z,23.00
2022-10-18T14:59:45.157Z,21.30
2022-10-18T15:02:20.522Z,18.00
2022-10-18T15:04:58.918Z,17.80
2022-10-18T15:07:31.045Z,19.50
2022-10-18T15:10:05.150Z,19.30
2022-10-18T15:13:08.119Z,18.50
2022-10-18T15:15:36.373Z,20.10
2022-10-18T15:18:09.260Z,16.80
2022-10-18T15:20:42.728Z,17.70
2022-10-18T15:23:31.350Z,15.20
2022-10-18T15:26:06.384Z,17.40
2022-10-18T15:28:49.953Z,22.70
2022-10-18T15:31:28.382Z,22.40
2022-10-18T15:34:13.096Z,20.50
2022-10-18T15:36:45.341Z,41.30
2022-10-18T15:39:20.341Z,44.80
2022-10-18T15:41:53.831Z,38.60
2022-10-18T15:44:31.700Z,28.90
2022-10-18T15:47:21.417Z,21.60
2022-10-18T15:49:56.574Z,18.40
2022-10-18T15:52:43.024Z,21.40
2022-10-18T15:55:49.542Z,20.20
2022-10-18T15:58:23.766Z,18.00
2022-10-18T16:00:59.368Z,17.20
2022-10-18T16:03:33.931Z,21.10
2022-10-18T16:06:09.942Z,18.90
2022-10-18T16:08:44.348Z,26.10
2022-10-18T16:11:20.561Z,26.30
2022-10-18T16:13:55.142Z,22.70
2022-10-18T16:16:30.531Z,26.40
2022-10-18T16:19:02.287Z,27.00
2022-10-18T16:21:36.396Z,23.30
2022-10-18T16:24:09.837Z,22.60
2022-10-18T16:26:41.522Z,21.80
2022-10-18T16:29:16.397Z,22.70
2022-10-18T16:31:50.884Z,23.70
2022-10-18T16:34:23.549Z,20.20
2022-10-18T16:36:56.220Z,21.80
2022-10-18T16:39:28.544Z,21.70
2022-10-18T16:42:00.201Z,19.70
2022-10-18T16:44:31.865Z,19.10
2022-10-18T16:47:03.783Z,18.50
2022-10-18T16:49:36.106Z,18.10
2022-10-18T16:52:08.231Z,19.80
2022-10-18T16:54:39.969Z,20.00
2022-10-18T16:57:13.512Z,21.50
2022-10-18T16:59:45.234Z,20.40
2022-10-18T17:02:16.900Z,17.80
2022-10-18T17:04:48.749Z,19.70
2022-10-18T17:07:26.068Z,18.90
2022-10-18T17:09:57.727Z,22.90
2022-10-18T17:12:29.510Z,21.00
2022-10-18T17:15:01.338Z,19.90
2022-10-18T17:17:33.580Z,20.80
2022-10-18T17:20:07.713Z,17.90
2022-10-18T17:22:39.437Z,21.30
2022-10-18T17:25:11.704Z,19.30
2022-10-18T17:27:43.778Z,18.40
2022-10-18T17:30:17.980Z,17.50
2022-10-18T17:32:49.857Z,18.40
2022-10-18T17:35:21.721Z,18.30
2022-10-18T17:37:54.672Z,19.30
2022-10-18T17:40:26.429Z,20.40
2022-10-18T17:42:59.312Z,19.90
2022-10-18T17:45:31.196Z,20.10
2022-10-18T17:48:02.971Z,22.50
2022-10-18T17:50:34.639Z,19.40
2022-10-18T17:53:06.380Z,19.70
2022-10-18T17:55:38.343Z,16.80
2022-10-18T17:58:10.206Z,16.20
2022-10-18T18:00:41.916Z,17.60
2022-10-18T18:03:13.730Z,16.70
2022-10-18T18:05:46.973Z,17.10
2022-10-18T18:08:18.691Z,18.90
2022-10-18T18:10:54.691Z,20.20
2022-10-18T18:13:26.559Z,17.00
2022-10-18T18:15:58.289Z,16.00
2022-10-18T18:18:29.968Z,16.20
2022-10-18T18:21:01.769Z,19.60
2022-10-18T18:23:33.728Z,17.20
2022-10-18T18:26:05.451Z,16.00
2022-10-18T18:28:37.782Z,15.70
2022-10-18T18:31:10.961Z,16.20
2022-10-18T18:33:43.125Z,15.90
2022-10-18T18:36:15.245Z,16.90
2022-10-18T18:38:47.552Z,15.90
2022-10-18T18:41:21.349Z,17.10
2022-10-18T18:43:55.437Z,18.50
2022-10-18T18:46:29.216Z,14.90
2022-10-18T18:49:01.400Z,17.20
2022-10-18T18:51:33.282Z,14.90
2022-10-18T18:54:05.299Z,16.30
2022-10-18T18:56:37.497Z,14.10
2022-10-18T18:59:09.656Z,18.40
2022-10-18T19:01:41.907Z,14.60
2022-10-18T19:04:13.743Z,17.90
2022-10-18T19:06:46.689Z,19.70
2022-10-18T19:09:22.154Z,15.40
2022-10-18T19:11:56.569Z,16.60
2022-10-18T19:14:29.079Z,15.90
2022-10-18T19:17:01.884Z,16.90
2022-10-18T19:19:34.168Z,15.80
2022-10-18T19:22:08.473Z,15.60
2022-10-18T19:24:40.578Z,15.20
2022-10-18T19:27:14.176Z,15.70
2022-10-18T19:29:47.425Z,15.10
2022-10-18T19:32:19.278Z,15.20
2022-10-18T19:34:51.043Z,17.00
2022-10-18T19:37:22.848Z,14.00
2022-10-18T19:39:54.649Z,15.40
2022-10-18T19:42:30.333Z,16.80
2022-10-18T19:45:03.174Z,15.90
2022-10-18T19:47:35.610Z,16.90
2022-10-18T19:50:09.186Z,17.60
2022-10-18T19:52:40.895Z,13.80
2022-10-18T19:55:12.631Z,15.80
2022-10-18T19:57:44.302Z,14.30
2022-10-18T20:00:19.451Z,15.80
2022-10-18T20:02:51.460Z,16.50
2022-10-18T20:05:23.146Z,15.30
2022-10-18T20:07:54.849Z,16.30
2022-10-18T20:10:26.552Z,17.40
2022-10-18T20:12:58.300Z,15.40
2022-10-18T20:15:30.616Z,16.30
2022-10-18T20:18:02.341Z,16.90
2022-10-18T20:20:37.688Z,15.40
2022-10-18T20:23:09.400Z,18.30
2022-10-18T20:25:41.179Z,17.40
2022-10-18T20:28:13.292Z,16.60
2022-10-18T20:30:44.965Z,16.40
2022-10-18T20:33:17.695Z,15.90
2022-10-18T20:35:52.234Z,14.70
2022-10-18T20:38:24.492Z,14.00
2022-10-18T20:40:56.216Z,15.30
2022-10-18T20:43:28.489Z,13.50
2022-10-18T20:46:00.841Z,13.80
2022-10-18T20:48:33.323Z,17.40
2022-10-18T20:51:09.969Z,14.80
2022-10-18T20:53:42.215Z,13.90
2022-10-18T20:56:16.235Z,16.70
2022-10-18T20:58:49.312Z,15.80
2022-10-18T21:01:22.996Z,16.90
2022-10-18T21:03:56.308Z,17.30
2022-10-18T21:06:30.136Z,18.40
2022-10-18T21:09:03.748Z,16.80
2022-10-18T21:11:38.147Z,17.50
2022-10-18T21:14:12.563Z,17.70
2022-10-18T21:16:44.773Z,14.20
2022-10-18T21:19:18.583Z,15.80
2022-10-18T21:21:52.613Z,14.40
2022-10-18T21:24:25.940Z,16.60
2022-10-18T21:27:00.078Z,18.30
2022-10-18T21:29:32.014Z,19.80
2022-10-18T21:32:03.716Z,20.10
2022-10-18T21:34:35.395Z,21.00
2022-10-18T21:37:07.149Z,18.80
2022-10-18T21:39:39.412Z,18.10
2022-10-18T21:42:11.283Z,18.00
2022-10-18T21:44:42.975Z,18.90
2022-10-18T21:47:15.417Z,18.80
2022-10-18T21:49:47.110Z,19.90
2022-10-18T21:52:18.977Z,20.50
2022-10-18T21:54:50.614Z,17.70
2022-10-18T21:57:22.306Z,19.30
2022-10-18T21:59:54.039Z,17.70
2022-10-18T22:02:25.727Z,14.10
2022-10-18T22:04:57.746Z,10.10
2022-10-18T22:07:29.597Z,12.00
2022-10-18T22:10:01.249Z,9.40
2022-10-18T22:12:32.939Z,10.10
2022-10-18T22:15:04.911Z,9.00
2022-10-18T22:17:37.060Z,8.80
2022-10-18T22:20:11.664Z,9.30
2022-10-18T22:22:43.334Z,6.60
2022-10-18T22:25:15.252Z,7.40
2022-10-18T22:27:46.931Z,5.20
2022-10-18T22:30:18.697Z,5.50
2022-10-18T22:32:50.354Z,5.60
2022-10-18T22:35:22.026Z,6.10
2022-10-18T22:37:56.092Z,4.70
2022-10-18T22:40:27.958Z,5.30
2022-10-18T22:42:59.645Z,6.70
2022-10-18T22:45:31.387Z,5.60
2022-10-18T22:48:03.119Z,4.00
2022-10-18T22:50:34.847Z,5.40
2022-10-18T22:53:06.533Z,4.90
2022-10-18T22:55:38.271Z,5.10
2022-10-18T22:58:10.050Z,4.80
2022-10-18T23:00:41.832Z,3.70
2022-10-18T23:03:15.510Z,3.60
2022-10-18T23:05:48.210Z,3.70
2022-10-18T23:08:20.079Z,3.80
2022-10-18T23:10:55.771Z,3.40
2022-10-18T23:13:28.888Z,3.80
2022-10-18T23:16:05.341Z,5.10
2022-10-18T23:18:37.323Z,5.30
2022-10-18T23:21:11.267Z,4.40
2022-10-18T23:23:43.989Z,3.80
2022-10-18T23:26:17.804Z,3.70
2022-10-18T23:28:52.036Z,3.40
2022-10-18T23:31:26.173Z,3.00
2022-10-18T23:34:00.145Z,3.10
2022-10-18T23:36:33.299Z,3.50
2022-10-18T23:39:06.325Z,3.60
2022-10-18T23:41:38.157Z,2.90
2022-10-18T23:44:11.511Z,2.80
2022-10-18T23:46:43.543Z,1.90
2022-10-18T23:49:15.333Z,3.10
2022-10-18T23:51:47.095Z,1.80
2022-10-18T23:54:18.765Z,2.50
2022-10-18T23:56:50.435Z,2.80
2022-10-18T23:59:22.193Z,3.00
